< < Back
Terminal Aerodrome Forecast


Current Version              Previous Versions:   1  2  3  4  5  6  7  8  9  

Terminal Aerodrome Forecast

462
FTUS42 KTAE 010900 AAA
TAFABY
TAF AMD
KABY 010910Z 0109/0206 01004KT P6SM SCT008 BKN250
      TEMPO 0109/0112 BKN008 OVC250
     FM012000 VRB05KT P6SM VCTS SCT050CB SCT250
     FM020100 VRB03KT P6SM SCT250=



Latest METAR

995
SAUS70 KWBC 020000
MTRABY
METAR KABY 012353Z 03006KT 10SM SCT070 27/22 A3000 RMK AO2 SLP156
T02720222 10333 20272 53008


USA.gov is the U.S. government's official web portal to all federal, state and local government web resources and services.